Glenwood City, Wisconsin
Current Conditions -  °F | °C
As of 4:15 PM on Friday 31 Oct 2014 (Local Time) from KLUM Reporting Station
Clear Clear  
Wind Chill: 35°   Ceiling: Unl
Heat Index: 40°   Visibility: 10mi
Dew Point: 17°   Wind: 6mph
Humidity: 40%   Direction: 360°N
Pressure: 30.47"   Gusts: NA
Location:  45.06°N, 92.17°W
Report Text: KLUM 312115Z AUTO 36005KT 310V010 10SM CLR 04/M08 A3047 RMK AO2 T00421084
Loading
Personal Weather Stations






























Interactive Weather Map
Tropical Storm Tracking
New forecast layout! Learn more

10-Day Weather Forecast

Advertisements
Track Severe Weather on mobile